• Join FlightAware (Why Join?)
  • Login
  • US Flag 
03:45AM EDT


 

Airport Tracker/Info


-or-


 

Live Flight TrackerFlight Track Log ✈ SKW5457 ✈ 15-May-2012 ✈ CYWG - KORD

Flight Track Log - Related Links

Times and Time Zones

All times are in EDT time to prevent confusion due to time zone crossing. See the SKW5457 flight status page for this flight to view local times or setup timezone preferences in your user account.

Time Position Orientation Groundspeed Altitude Reporting Facility
EDT Latitude Longitude Course Direction KTS MPH feet Rate Location/Type
06:47PM 49.8662 -97.1771 324° Northwest  Level FlightAware Approximate
06:47PM 49.9167 -97.2333 126° Southeast 150 173 2,000  Level Winnipeg Center
06:52PM 49.8167 -97.0167 162° South 370 426 16,100 2,580 Climbing Winnipeg Center
06:53PM 49.7167 -96.9667 164° South 380 437 17,800 1,800 Climbing Winnipeg Center
06:54PM 49.6000 -96.9167 152° Southeast 400 460 19,700 1,860 Climbing Winnipeg Center
06:55PM 49.5000 -96.8333 151° Southeast 420 483 21,600 1,740 Climbing Winnipeg Center
06:56PM 49.3833 -96.7333 147° Southeast 430 495 23,200 1,560 Climbing Winnipeg Center
06:57PM 49.2833 -96.6333 139° Southeast 440 506 24,800 1,500 Climbing Winnipeg Center
06:58PM 49.1833 -96.5000 159° South 450 518 26,200 1,320 Climbing Winnipeg Center
06:59PM 49.0667 -96.4333 144° Southeast 460 529 27,500 1,140 Climbing Winnipeg Center
07:00PM 49.0114 -96.3714 148° Southeast 465 535 28,200 1,020 Climbing Minneapolis Center
07:01PM 48.8994 -96.2639 149° Southeast 465 535 29,300 900 Climbing Minneapolis Center
07:02PM 48.7853 -96.1600 148° Southeast 471 542 30,000 300 Climbing Minneapolis Center
07:03PM 48.6631 -96.0436 149° Southeast 493 567 30,000  Level Minneapolis Center
07:04PM 48.5406 -95.9308 149° Southeast 507 583 30,000 540 Level Minneapolis Center
07:05PM 48.4181 -95.8217 148° Southeast 512 589 31,100 960 Climbing Minneapolis Center
07:06PM 48.2994 -95.7100 149° Southeast 512 589 32,000 900 Climbing Minneapolis Center
07:07PM 48.1847 -95.6086 149° Southeast 507 583 33,000 480 Climbing Minneapolis Center
07:08PM 48.0456 -95.4847 149° Southeast 512 589 33,000  Level Minneapolis Center
07:09PM 47.9244 -95.3778 149° Southeast 512 589 33,000  Level Minneapolis Center
07:10PM 47.8075 -95.2747 149° Southeast 505 581 33,000  Level Minneapolis Center
07:11PM 47.6925 -95.1719 150° Southeast 494 568 33,000  Level Minneapolis Center
07:12PM 47.5753 -95.0728 148° Southeast 488 562 33,000  Level Minneapolis Center
07:13PM 47.4642 -94.9711 151° Southeast 478 550 33,000  Level Minneapolis Center
07:14PM 47.3486 -94.8758 150° Southeast 478 550 33,000  Level Minneapolis Center
07:15PM 47.2333 -94.7781 148° Southeast 478 550 33,000  Level Minneapolis Center
07:16PM 47.1219 -94.6775 150° Southeast 478 550 33,000  Level Minneapolis Center
07:17PM 47.0125 -94.5836 150° Southeast 478 550 33,000  Level Minneapolis Center
07:18PM 46.9008 -94.4903 150° Southeast 478 550 33,000  Level Minneapolis Center
07:19PM 46.7872 -94.3939 150° Southeast 473 544 33,000  Level Minneapolis Center
07:20PM 46.6775 -94.3014 150° Southeast 473 544 33,000  Level Minneapolis Center
07:21PM 46.5658 -94.2058 151° Southeast 467 537 33,000  Level Minneapolis Center
07:22PM 46.4539 -94.1169 151° Southeast 467 537 33,000  Level Minneapolis Center
07:23PM 46.3397 -94.0253 159° South 467 537 33,000  Level Minneapolis Center
07:24PM 46.2214 -93.9581 160° South 461 531 33,000  Level Minneapolis Center
07:25PM 46.1031 -93.8969 159° South 451 519 33,000  Level Minneapolis Center
07:26PM 45.9844 -93.8303 160° South 456 525 33,000  Level Minneapolis Center
07:27PM 45.8658 -93.7669 159° South 456 525 33,000  Level Minneapolis Center
07:28PM 45.7475 -93.7008 160° South 456 525 33,000  Level Minneapolis Center
07:29PM 45.6289 -93.6378 159° South 462 532 33,000  Level Minneapolis Center
07:30PM 45.5183 -93.5783 159° South 462 532 33,000  Level Minneapolis Center
07:31PM 45.3997 -93.5128 160° South 462 532 33,000  Level Minneapolis Center
07:32PM 45.2831 -93.4508 154° Southeast 462 532 33,000  Level Minneapolis Center
07:33PM 45.1664 -93.3714 132° Southeast 462 532 33,000  Level Minneapolis Center
07:34PM 45.0808 -93.2392 119° Southeast 451 519 33,000  Level Minneapolis Center
07:35PM 45.0117 -93.0661 119° Southeast 451 519 33,000  Level Minneapolis Center
07:36PM 44.9486 -92.9053 121° Southeast 462 532 33,000  Level Minneapolis Center
07:37PM 44.8833 -92.7506 121° Southeast 462 532 33,000  Level Minneapolis Center
07:38PM 44.8175 -92.5964 120° Southeast 462 532 33,000  Level Minneapolis Center
07:39PM 44.7539 -92.4394 122° Southeast 462 532 33,000  Level Minneapolis Center
07:40PM 44.6878 -92.2886 122° Southeast 461 531 33,000  Level Minneapolis Center
07:41PM 44.6281 -92.1528 121° Southeast 461 531 33,000  Level Minneapolis Center
07:42PM 44.5617 -91.9969 123° Southeast 456 525 33,000 -60 Level Minneapolis Center
07:43PM 44.4928 -91.8503 126° Southeast 451 519 32,900 -360 Descending Minneapolis Center
07:44PM 44.4158 -91.7014 126° Southeast 469 540 32,300 -600 Descending Minneapolis Center
07:45PM 44.3361 -91.5500 127° Southeast 484 557 31,700 -600 Descending Minneapolis Center
07:46PM 44.2478 -91.3847 126° Southeast 484 557 31,100 -360 Descending Minneapolis Center
07:47PM 44.1700 -91.2369 126° Southeast 484 557 31,000 -60 Descending Minneapolis Center
07:48PM 44.1083 -91.1186 126° Southeast 483 556 31,000  Level Chicago Center
07:49PM 44.0311 -90.9692 127° Southeast 483 556 31,000  Level Chicago Center
07:50PM 43.9539 -90.8258 127° Southeast 478 550 31,000  Level Chicago Center
07:51PM 43.8786 -90.6858 126° Southeast 478 550 31,000  Level Chicago Center
07:52PM 43.8050 -90.5433 127° Southeast 467 537 31,000  Level Chicago Center
07:53PM 43.7272 -90.4011 127° Southeast 467 537 31,000  Level Chicago Center
07:54PM 43.6494 -90.2592 127° Southeast 467 537 31,000 -300 Level Chicago Center
07:55PM 43.5733 -90.1206 127° Southeast 462 532 30,400 -1,860 Descending Chicago Center
07:56PM 43.4950 -89.9764 128° Southeast 462 532 27,300 -3,060 Descending Chicago Center
07:57PM 43.4164 -89.8356 126° Southeast 467 537 24,300 -2,160 Descending Chicago Center
07:58PM 43.3439 -89.7008 128° Southeast 455 524 23,000 -660 Descending Chicago Center
07:59PM 43.2714 -89.5722 127° Southeast 429 494 23,000 -240 Level Chicago Center
08:00PM 43.2050 -89.4525 129° Southeast 405 466 22,600 -660 Descending Chicago Center
08:01PM 43.1425 -89.3469 161° South 381 438 21,700 -900 Descending Chicago Center
08:02PM 43.0592 -89.3072 164° South 317 365 20,800 -900 Descending Chicago Center
08:03PM 42.9819 -89.2761 148° Southeast 304 350 19,900 -900 Descending Chicago Center
08:04PM 42.9153 -89.2194 106° East 279 321 19,000 -480 Descending Chicago Center
08:05PM 42.8878 -89.0919 107° East 356 410 19,000 -780 Level Chicago Center
08:06PM 42.8625 -88.9789 107° East 373 429 17,500 -2,220 Descending Chicago Center
08:07PM 42.8244 -88.8119 107° East 384 442 14,600 -2,100 Descending Chicago Center
08:08PM 42.7944 -88.6822 108° East 375 432 13,300 -840 Descending Chicago Center
08:09PM 42.7644 -88.5581 101° East 359 413 13,000 -180 Descending Chicago Center
08:10PM 42.7425 -88.4056 88° East 343 395 13,000 -360 Level Chicago Center
08:11PM 42.7456 -88.2783 88° East 338 389 12,300 -1,200 Descending Chicago Center
08:12PM 42.7486 -88.1539 88° East 326 375 10,600 -1,740 Descending Chicago Center
08:13PM 42.7514 -88.0381 86° East 315 362 8,900 -1,740 Descending Chicago Center
08:14PM 42.7564 -87.9275 87° East 302 348 7,200 -960 Descending Chicago Center
08:15PM 42.7611 -87.8114 122° Southeast 297 342 7,000 -120 Descending Chicago Center
08:16PM 42.7203 -87.7219 148° Southeast 291 335 7,000  Level Chicago Center
08:18PM 42.6167 -87.6333 164° South 299 344 7,000  Level Chicago TRACON
08:19PM 42.5333 -87.6000 164° South 283 326 7,000  Level Chicago TRACON
08:20PM 42.4500 -87.5667 190° South 278 320 7,000  Level Chicago TRACON
08:21PM 42.3833 -87.5833 170° South 256 295 7,000 -480 Level Chicago TRACON
08:21PM 42.3167 -87.5667 164° South 276 318 6,200 -600 Descending Chicago TRACON
08:23PM 42.2333 -87.5333 151° Southeast 295 339 5,800 -600 Descending Chicago TRACON
08:24PM 42.1667 -87.4833 197° South 268 308 5,000 -540 Descending Chicago TRACON
08:25PM 42.0833 -87.5167 228° Southwest 261 300 4,700 -540 Descending Chicago TRACON
08:26PM 42.0500 -87.5667 255° West 222 255 4,000 -360 Descending Chicago TRACON
08:27PM 42.0333 -87.6500 246° West 199 229 4,000 -180 Level Chicago TRACON
08:28PM 42.0167 -87.7000 270° West 164 189 3,700 -600 Descending Chicago TRACON
08:29PM 42.0167 -87.7667 270° West 166 191 2,900 -840 Descending Chicago TRACON